Time;durP1;ratioP1;P1;durP2;ratioP2;P2;SDS_P1;SDS_P2;PMS_P1;PMS_P2;Temp;Humidity;BMP_temperature;BMP_pressure;BME280_temperature;BME280_humidity;BME280_pressure;Samples;Min_cycle;Max_cycle;Signal;HPM_P1;HPM_P2
2023/02/27 00:00:38;;;;;;;4.50;4.07;;;3.70;99.80;;;;;;5073590;28;20592;-76
2023/02/27 00:03:05;;;;;;;5.82;5.00;;;3.70;99.90;;;;;;5105650;28;20227;-76
2023/02/27 00:05:32;;;;;;;5.47;4.65;;;3.60;99.90;;;;;;5105920;28;20230;-80
2023/02/27 00:08:02;;;;;;;4.47;4.05;;;3.60;99.90;;;;;;5099480;28;20226;-80
2023/02/27 00:10:29;;;;;;;5.68;4.00;;;3.60;99.90;;;;;;5101012;28;20227;-76
2023/02/27 00:12:56;;;;;;;4.45;4.05;;;3.60;99.90;;;;;;5106667;28;20241;-76
2023/02/27 00:15:23;;;;;;;5.88;4.78;;;3.60;99.90;;;;;;5106660;28;20241;-76
2023/02/27 00:17:58;;;;;;;6.50;5.22;;;3.60;99.90;;;;;;5098797;28;20288;-76
2023/02/27 00:20:31;;;;;;;9.07;7.22;;;3.60;99.90;;;;;;5099616;28;20241;-76
2023/02/27 00:22:58;;;;;;;6.10;5.15;;;3.60;99.90;;;;;;5110582;28;20245;-77
2023/02/27 00:25:24;;;;;;;5.45;4.90;;;3.60;99.90;;;;;;5099923;28;20259;-80
2023/02/27 00:27:52;;;;;;;9.07;4.88;;;3.60;99.90;;;;;;5104953;28;20298;-80
2023/02/27 00:30:21;;;;;;;4.32;3.90;;;3.50;99.90;;;;;;5106824;28;20221;-77
2023/02/27 00:32:50;;;;;;;3.50;3.20;;;3.50;99.90;;;;;;5101079;28;20279;-77
2023/02/27 00:35:19;;;;;;;3.88;3.55;;;3.50;99.90;;;;;;5099432;28;20298;-81
2023/02/27 00:37:46;;;;;;;4.32;3.60;;;3.50;99.90;;;;;;5105244;28;20327;-81
2023/02/27 00:40:16;;;;;;;4.72;3.40;;;3.50;99.90;;;;;;5106267;28;20253;-81
2023/02/27 00:42:48;;;;;;;4.45;3.97;;;3.50;99.90;;;;;;5095805;28;20285;-80
2023/02/27 00:45:15;;;;;;;8.65;4.22;;;3.50;99.90;;;;;;5105698;28;20230;-81
2023/02/27 00:47:42;;;;;;;12.13;6.35;;;3.50;99.90;;;;;;5102924;28;20295;-81
2023/02/27 00:50:10;;;;;;;9.27;5.88;;;3.50;99.90;;;;;;5098477;28;20284;-77
2023/02/27 00:52:39;;;;;;;7.30;5.40;;;3.50;99.90;;;;;;5103896;28;20673;-81
2023/02/27 00:55:07;;;;;;;5.85;4.20;;;3.50;99.90;;;;;;5109976;28;20227;-81
2023/02/27 00:57:34;;;;;;;4.80;3.90;;;3.50;99.90;;;;;;5107264;28;20721;-80
2023/02/27 01:00:02;;;;;;;3.75;3.40;;;3.50;99.90;;;;;;5088189;28;20311;-76
2023/02/27 01:02:32;;;;;;;3.38;3.08;;;3.50;99.90;;;;;;5110802;28;20679;-77
2023/02/27 01:04:59;;;;;;;4.45;2.90;;;3.50;99.90;;;;;;5102913;28;20218;-79
2023/02/27 01:07:26;;;;;;;3.00;2.80;;;3.50;99.90;;;;;;5103705;28;20223;-76
2023/02/27 01:09:55;;;;;;;3.03;2.67;;;3.40;99.90;;;;;;5110028;28;20311;-76
2023/02/27 01:12:23;;;;;;;4.25;2.90;;;3.40;99.90;;;;;;5109795;28;20280;-80
2023/02/27 01:14:50;;;;;;;3.90;3.00;;;3.40;99.90;;;;;;5104888;28;20227;-80
2023/02/27 01:17:17;;;;;;;3.65;2.95;;;3.40;99.90;;;;;;5102923;28;20238;-76
2023/02/27 01:19:44;;;;;;;3.22;2.90;;;3.40;99.90;;;;;;5109964;28;20211;-76
2023/02/27 01:22:11;;;;;;;4.55;2.97;;;3.40;99.90;;;;;;5102392;28;20613;-79
2023/02/27 01:24:38;;;;;;;3.05;2.40;;;3.40;99.90;;;;;;5108284;28;20234;-80
2023/02/27 01:27:06;;;;;;;3.45;2.40;;;3.30;99.90;;;;;;5110452;28;20672;-80
2023/02/27 01:29:35;;;;;;;3.15;2.85;;;3.30;99.90;;;;;;5090371;28;20347;-81
2023/02/27 01:32:02;;;;;;;3.45;3.13;;;3.30;99.90;;;;;;5084342;28;20236;-78
2023/02/27 01:34:29;;;;;;;3.25;2.63;;;3.30;99.90;;;;;;5107055;28;20688;-76
2023/02/27 01:36:56;;;;;;;3.20;2.67;;;3.30;99.90;;;;;;5110212;28;20226;-75
2023/02/27 01:39:24;;;;;;;7.63;3.00;;;3.20;99.90;;;;;;5105447;28;20528;-80
2023/02/27 01:41:51;;;;;;;2.70;2.50;;;3.20;99.90;;;;;;5103241;28;20691;-76
2023/02/27 01:44:20;;;;;;;3.47;2.75;;;3.20;99.90;;;;;;5106089;28;20227;-80
2023/02/27 01:46:47;;;;;;;2.10;1.90;;;3.20;99.90;;;;;;5110061;28;20227;-80
2023/02/27 01:49:18;;;;;;;2.70;2.25;;;3.20;99.90;;;;;;5104613;28;20621;-80
2023/02/27 01:51:47;;;;;;;3.28;2.30;;;3.20;99.90;;;;;;5102675;28;20239;-75
2023/02/27 01:54:18;;;;;;;2.67;2.45;;;3.20;99.90;;;;;;5106408;28;20296;-76
2023/02/27 01:56:45;;;;;;;3.40;2.72;;;3.10;99.90;;;;;;5109568;28;20223;-81
2023/02/27 01:59:13;;;;;;;2.45;2.17;;;3.10;99.90;;;;;;5085802;28;20238;-81
2023/02/27 02:01:43;;;;;;;3.03;2.00;;;3.10;99.90;;;;;;5102005;28;20222;-81
2023/02/27 02:04:16;;;;;;;3.40;2.72;;;3.10;99.90;;;;;;5101842;28;20257;-80
2023/02/27 02:06:47;;;;;;;2.90;2.70;;;3.00;99.90;;;;;;5107250;28;20684;-79
2023/02/27 02:09:18;;;;;;;4.13;2.60;;;3.00;99.90;;;;;;5108600;28;20230;-80
2023/02/27 02:11:45;;;;;;;4.68;2.75;;;3.00;99.90;;;;;;5105072;28;20295;-80
2023/02/27 02:14:14;;;;;;;2.25;2.05;;;3.00;99.90;;;;;;5101602;28;20913;-80
2023/02/27 02:17:05;;;;;;;2.08;1.90;;;3.00;99.90;;;;;;5106445;28;20239;-81
2023/02/27 02:20:22;;;;;;;2.50;2.30;;;3.00;99.90;;;;;;5111308;28;20231;-81
2023/02/27 02:23:22;;;;;;;3.38;2.45;;;3.00;99.90;;;;;;5102158;28;20214;-80
2023/02/27 02:26:35;;;;;;;3.95;3.38;;;2.90;99.90;;;;;;5100984;28;20272;-79
2023/02/27 02:29:45;;;;;;;3.30;2.30;;;2.90;99.90;;;;;;5053921;28;20227;-80
2023/02/27 02:32:40;;;;;;;2.80;2.60;;;2.90;99.90;;;;;;5101591;28;20707;-77
2023/02/27 02:35:35;;;;;;;2.97;2.78;;;2.90;99.90;;;;;;5101864;28;20223;-77
2023/02/27 02:38:42;;;;;;;6.07;3.67;;;2.80;99.90;;;;;;5102816;28;20583;-75
2023/02/27 02:41:16;;;;;;;2.88;1.90;;;2.80;99.90;;;;;;5071632;28;20555;-80
2023/02/27 02:43:53;;;;;;;4.95;2.55;;;2.80;99.90;;;;;;5101299;28;20601;-75
2023/02/27 02:46:29;;;;;;;2.25;2.05;;;2.80;99.90;;;;;;5101288;28;20211;-76
2023/02/27 02:49:01;;;;;;;2.65;2.28;;;2.70;99.90;;;;;;5089268;28;20222;-76
2023/02/27 02:51:34;;;;;;;2.40;2.20;;;2.70;99.90;;;;;;5101235;28;20254;-76
2023/02/27 02:54:08;;;;;;;2.78;1.95;;;2.70;99.90;;;;;;5105793;28;20265;-76
2023/02/27 02:56:41;;;;;;;3.53;2.30;;;2.70;99.90;;;;;;5090687;28;20215;-75
2023/02/27 02:59:14;;;;;;;4.20;2.63;;;2.70;99.90;;;;;;5093236;28;20224;-76
2023/02/27 03:01:46;;;;;;;2.30;2.08;;;2.70;99.90;;;;;;5086730;28;20288;-75
2023/02/27 03:04:18;;;;;;;2.33;1.90;;;2.70;99.90;;;;;;5102052;28;20284;-80
2023/02/27 03:06:51;;;;;;;2.95;2.42;;;2.70;99.90;;;;;;5113439;28;20219;-79
2023/02/27 03:09:23;;;;;;;4.25;2.25;;;2.70;99.90;;;;;;5110500;28;20230;-79
2023/02/27 03:11:55;;;;;;;3.10;2.80;;;2.70;99.90;;;;;;5104309;28;20218;-75
2023/02/27 03:14:28;;;;;;;4.22;2.67;;;2.70;99.90;;;;;;5100510;28;20239;-75
2023/02/27 03:17:00;;;;;;;2.60;1.95;;;2.70;99.90;;;;;;5106747;28;20227;-81
2023/02/27 03:19:32;;;;;;;3.25;2.40;;;2.70;99.90;;;;;;5109360;28;20231;-76
2023/02/27 03:22:04;;;;;;;2.67;2.00;;;2.70;99.90;;;;;;5108279;28;20607;-80
2023/02/27 03:24:34;;;;;;;2.10;1.90;;;2.70;99.90;;;;;;5103321;28;20326;-75
2023/02/27 03:27:05;;;;;;;2.85;1.95;;;2.80;99.90;;;;;;5108983;28;20215;-79
2023/02/27 03:29:38;;;;;;;3.13;2.50;;;2.80;99.90;;;;;;5111213;28;21035;-80
2023/02/27 03:32:12;;;;;;;4.45;2.28;;;2.80;99.90;;;;;;5109547;28;20233;-76
2023/02/27 03:34:42;;;;;;;3.08;2.45;;;2.80;99.90;;;;;;5102341;28;20234;-76
2023/02/27 03:37:20;;;;;;;5.43;2.90;;;2.80;99.90;;;;;;5100969;28;20602;-77
2023/02/27 03:39:50;;;;;;;2.40;2.20;;;2.80;99.90;;;;;;5104322;28;20222;-77
2023/02/27 03:42:26;;;;;;;2.22;2.03;;;2.70;99.90;;;;;;5103849;28;20309;-82
2023/02/27 03:45:01;;;;;;;3.88;2.70;;;2.70;99.90;;;;;;5107085;28;20319;-82
2023/02/27 03:47:28;;;;;;;2.20;2.00;;;2.70;99.90;;;;;;5114271;28;20284;-82
2023/02/27 03:49:57;;;;;;;4.03;2.40;;;2.70;99.90;;;;;;5109445;28;20239;-77
2023/02/27 03:52:25;;;;;;;2.47;2.35;;;2.70;99.90;;;;;;5101742;28;20326;-77
2023/02/27 03:54:57;;;;;;;2.58;2.38;;;2.70;99.90;;;;;;5099463;28;20282;-81
2023/02/27 03:57:26;;;;;;;2.55;2.35;;;2.70;99.90;;;;;;5091535;28;20237;-81
2023/02/27 03:59:53;;;;;;;4.03;2.60;;;2.70;99.90;;;;;;5119701;28;20233;-81
2023/02/27 04:02:21;;;;;;;2.63;2.33;;;2.70;99.90;;;;;;5102665;28;20230;-77
2023/02/27 04:04:48;;;;;;;2.92;2.65;;;2.70;99.90;;;;;;5101324;28;20223;-78
2023/02/27 04:07:24;;;;;;;4.75;2.75;;;2.70;99.90;;;;;;5109380;28;20223;-82
2023/02/27 04:10:14;;;;;;;2.75;2.35;;;2.70;99.90;;;;;;5110221;28;20241;-77
2023/02/27 04:13:19;;;;;;;2.92;2.30;;;2.80;99.90;;;;;;5109142;28;20222;-79
2023/02/27 04:15:59;;;;;;;2.97;2.60;;;2.70;99.90;;;;;;5095685;28;20214;-80
2023/02/27 04:18:40;;;;;;;2.42;2.17;;;2.70;99.90;;;;;;5100167;28;20240;-79
2023/02/27 04:21:15;;;;;;;2.85;2.60;;;2.60;99.90;;;;;;5107523;28;20215;-79
2023/02/27 04:23:52;;;;;;;3.50;3.17;;;2.70;99.90;;;;;;5112636;28;20291;-76
2023/02/27 04:26:25;;;;;;;3.78;2.83;;;2.60;99.90;;;;;;5106795;28;20243;-75
2023/02/27 04:29:03;;;;;;;2.40;2.17;;;2.70;99.90;;;;;;5104229;28;20229;-75
2023/02/27 04:31:34;;;;;;;4.55;2.90;;;2.70;99.90;;;;;;5099564;28;20291;-77
2023/02/27 04:34:07;;;;;;;5.93;2.47;;;2.60;99.90;;;;;;5101119;28;20227;-81
2023/02/27 04:36:41;;;;;;;3.65;2.40;;;2.70;99.90;;;;;;5086294;28;20234;-76
2023/02/27 04:39:11;;;;;;;3.13;2.90;;;2.70;99.90;;;;;;5100108;28;20233;-80
2023/02/27 04:41:43;;;;;;;3.25;2.88;;;2.60;99.90;;;;;;5101338;28;20309;-76
2023/02/27 04:44:13;;;;;;;4.25;2.60;;;2.60;99.90;;;;;;5106621;28;20235;-75
2023/02/27 04:46:43;;;;;;;2.13;1.95;;;2.60;99.90;;;;;;5105581;28;20722;-80
2023/02/27 04:49:16;;;;;;;3.05;2.80;;;2.60;99.90;;;;;;5087316;28;20233;-79
2023/02/27 04:51:51;;;;;;;3.58;3.28;;;2.60;99.90;;;;;;5098093;28;20246;-80
2023/02/27 04:54:25;;;;;;;3.42;2.88;;;2.60;99.90;;;;;;5091784;28;20221;-80
2023/02/27 04:56:55;;;;;;;4.43;3.03;;;2.60;99.90;;;;;;5091720;28;20218;-80
2023/02/27 04:59:33;;;;;;;4.65;2.50;;;2.60;99.90;;;;;;5093192;28;20231;-75
2023/02/27 05:02:07;;;;;;;3.03;2.50;;;2.60;99.90;;;;;;5092029;28;20566;-80
2023/02/27 05:04:39;;;;;;;3.35;3.05;;;2.60;99.90;;;;;;5093151;28;20581;-75
2023/02/27 05:07:08;;;;;;;3.53;3.25;;;2.60;99.90;;;;;;5090635;28;20219;-76
2023/02/27 05:09:41;;;;;;;3.75;2.90;;;2.60;99.90;;;;;;5090989;28;20288;-76
2023/02/27 05:12:16;;;;;;;2.35;2.15;;;2.60;99.90;;;;;;5091342;28;20592;-81
2023/02/27 05:14:50;;;;;;;3.35;2.50;;;2.60;99.90;;;;;;5092515;28;20716;-81
2023/02/27 05:17:23;;;;;;;3.88;3.45;;;2.50;99.90;;;;;;5092700;28;20233;-81
2023/02/27 05:19:50;;;;;;;3.63;2.45;;;2.50;99.90;;;;;;5100633;28;20258;-80
2023/02/27 05:22:27;;;;;;;3.78;3.10;;;2.50;99.90;;;;;;5101102;28;20227;-80
2023/02/27 05:25:02;;;;;;;3.72;3.00;;;2.50;99.90;;;;;;5102793;28;20227;-76
2023/02/27 05:27:38;;;;;;;2.58;2.33;;;2.50;99.90;;;;;;5110515;28;20227;-80
2023/02/27 05:30:12;;;;;;;3.13;2.70;;;2.50;99.90;;;;;;5113789;28;20223;-80
2023/02/27 05:32:44;;;;;;;4.00;3.20;;;2.50;99.90;;;;;;5095954;28;20636;-81
2023/02/27 05:35:18;;;;;;;5.72;3.35;;;2.50;99.90;;;;;;5092806;28;20223;-80
2023/02/27 05:37:50;;;;;;;6.70;3.80;;;2.50;99.90;;;;;;5092414;28;20227;-80
2023/02/27 05:40:21;;;;;;;3.15;2.85;;;2.50;99.90;;;;;;5093837;28;20226;-80
2023/02/27 05:42:57;;;;;;;5.03;3.55;;;2.50;99.90;;;;;;5096455;28;20234;-76
2023/02/27 05:45:30;;;;;;;3.60;3.30;;;2.50;99.90;;;;;;5095612;28;20561;-76
2023/02/27 05:48:03;;;;;;;4.30;3.90;;;2.50;99.90;;;;;;5096242;28;20231;-76
2023/02/27 05:50:34;;;;;;;5.97;3.75;;;2.50;99.90;;;;;;5095900;28;20268;-76
2023/02/27 05:53:04;;;;;;;7.40;4.55;;;2.50;99.90;;;;;;5095446;28;20738;-76
2023/02/27 05:55:37;;;;;;;4.20;3.80;;;2.50;99.90;;;;;;5095487;28;20227;-76
2023/02/27 05:58:11;;;;;;;6.22;4.75;;;2.40;99.90;;;;;;5095997;28;20596;-80
2023/02/27 06:00:43;;;;;;;7.53;4.43;;;2.40;99.90;;;;;;5096075;28;20223;-80
2023/02/27 06:03:13;;;;;;;12.50;8.60;;;2.40;99.90;;;;;;5095654;28;20277;-76
2023/02/27 06:05:43;;;;;;;11.45;8.48;;;2.40;99.90;;;;;;5095666;28;20276;-81
2023/02/27 06:08:13;;;;;;;8.45;7.25;;;2.40;99.90;;;;;;5096012;28;20234;-76
2023/02/27 06:10:40;;;;;;;7.32;6.03;;;2.40;99.90;;;;;;5095364;28;20219;-81
2023/02/27 06:13:07;;;;;;;7.32;5.53;;;2.50;99.90;;;;;;5096119;28;20276;-76
2023/02/27 06:15:34;;;;;;;9.82;5.90;;;2.50;99.90;;;;;;5095222;28;20226;-81
2023/02/27 06:18:03;;;;;;;7.32;5.13;;;2.50;99.90;;;;;;5094071;28;20714;-81
2023/02/27 06:20:30;;;;;;;5.60;3.97;;;2.50;99.90;;;;;;5095308;28;20254;-76
2023/02/27 06:22:57;;;;;;;6.30;4.25;;;2.50;99.90;;;;;;5075704;28;20242;-76
2023/02/27 06:25:25;;;;;;;4.80;4.25;;;2.50;99.90;;;;;;5095108;28;20227;-76
2023/02/27 06:27:55;;;;;;;5.97;4.22;;;2.50;99.90;;;;;;5094889;28;20272;-76
2023/02/27 06:30:22;;;;;;;5.43;4.45;;;2.50;99.90;;;;;;5094925;28;20219;-76
2023/02/27 06:32:49;;;;;;;5.35;4.35;;;2.40;99.90;;;;;;5095069;28;20238;-76
2023/02/27 06:35:18;;;;;;;4.43;3.92;;;2.40;99.90;;;;;;5083212;28;20665;-80
2023/02/27 06:37:45;;;;;;;3.90;3.28;;;2.40;99.90;;;;;;5094845;28;20246;-76
2023/02/27 06:40:13;;;;;;;5.05;3.65;;;2.40;99.90;;;;;;5095483;28;20220;-80
2023/02/27 06:42:42;;;;;;;5.07;4.38;;;2.50;99.90;;;;;;5085525;28;20223;-80
2023/02/27 06:45:11;;;;;;;4.40;4.00;;;2.50;99.90;;;;;;5094888;28;20657;-80
2023/02/27 06:47:39;;;;;;;5.85;4.55;;;2.40;99.90;;;;;;5093888;28;20728;-79
2023/02/27 06:50:07;;;;;;;13.43;6.43;;;2.50;99.90;;;;;;5094951;28;20234;-80
2023/02/27 06:52:35;;;;;;;7.80;6.40;;;2.50;99.90;;;;;;5094715;28;20223;-80
2023/02/27 06:55:03;;;;;;;8.40;7.30;;;2.50;99.90;;;;;;5094284;28;20227;-80
2023/02/27 06:57:30;;;;;;;11.40;6.53;;;2.50;99.90;;;;;;5094698;28;20251;-76
2023/02/27 06:59:57;;;;;;;6.07;4.60;;;2.50;99.90;;;;;;5095082;28;20216;-76
2023/02/27 07:02:24;;;;;;;4.43;4.03;;;2.50;99.90;;;;;;5094232;28;20276;-80
2023/02/27 07:04:51;;;;;;;6.35;4.25;;;2.50;99.90;;;;;;5094567;28;20219;-80
2023/02/27 07:07:19;;;;;;;6.13;5.07;;;2.60;99.90;;;;;;5094779;28;20223;-76
2023/02/27 07:10:12;;;;;;;5.28;3.85;;;2.60;99.90;;;;;;5094362;28;20284;-77
2023/02/27 07:12:40;;;;;;;6.65;4.63;;;2.60;99.90;;;;;;5094214;28;20258;-76
2023/02/27 07:15:10;;;;;;;4.70;4.15;;;2.60;99.90;;;;;;5094640;28;20219;-76
2023/02/27 07:17:37;;;;;;;5.70;3.50;;;2.60;99.90;;;;;;5093492;28;20617;-76
2023/02/27 07:20:07;;;;;;;4.55;3.83;;;2.60;99.90;;;;;;5094611;28;20242;-79
2023/02/27 07:22:34;;;;;;;6.07;3.60;;;2.60;99.90;;;;;;5093270;28;20227;-80
2023/02/27 07:25:01;;;;;;;5.68;4.20;;;2.60;99.90;;;;;;5095125;28;20219;-81
2023/02/27 07:27:31;;;;;;;7.00;5.35;;;2.70;99.90;;;;;;5094110;28;20276;-76
2023/02/27 07:29:59;;;;;;;6.45;3.97;;;2.70;99.90;;;;;;5094199;28;20231;-76
2023/02/27 07:32:27;;;;;;;6.82;4.65;;;2.70;99.90;;;;;;5093801;28;20223;-76
2023/02/27 07:34:54;;;;;;;5.03;4.28;;;2.80;99.90;;;;;;5095504;28;20219;-79
2023/02/27 07:37:21;;;;;;;9.10;4.72;;;2.80;99.90;;;;;;5095652;28;20230;-80
2023/02/27 07:39:48;;;;;;;9.93;4.28;;;2.80;99.90;;;;;;5094212;28;20220;-81
2023/02/27 07:42:15;;;;;;;4.30;3.83;;;2.80;99.90;;;;;;5094268;28;20220;-75
2023/02/27 07:44:43;;;;;;;5.13;4.05;;;2.80;99.90;;;;;;5093481;28;20230;-76
2023/02/27 07:47:11;;;;;;;5.93;3.70;;;2.80;99.90;;;;;;5093824;28;20219;-76
2023/02/27 07:49:38;;;;;;;8.10;3.85;;;2.80;99.90;;;;;;5093695;28;20257;-81
2023/02/27 07:52:08;;;;;;;4.80;3.60;;;2.90;99.90;;;;;;5094241;28;20223;-80
2023/02/27 07:54:37;;;;;;;5.32;4.00;;;2.90;99.90;;;;;;5093449;28;20219;-80
2023/02/27 07:57:04;;;;;;;4.30;3.70;;;2.90;99.90;;;;;;5093787;28;20312;-76
2023/02/27 07:59:31;;;;;;;4.20;3.42;;;3.00;99.90;;;;;;5092640;28;20241;-76
2023/02/27 08:01:59;;;;;;;6.38;3.47;;;3.00;99.90;;;;;;5092885;28;20251;-76
2023/02/27 08:04:26;;;;;;;5.30;3.58;;;3.00;99.90;;;;;;5092778;28;20606;-76
2023/02/27 08:06:53;;;;;;;6.53;3.60;;;3.10;99.90;;;;;;5093489;28;20219;-76
2023/02/27 08:09:20;;;;;;;4.43;3.60;;;3.10;99.90;;;;;;5093411;28;20231;-75
2023/02/27 08:11:48;;;;;;;4.60;4.20;;;3.20;99.90;;;;;;5093493;28;20227;-77
2023/02/27 08:14:15;;;;;;;4.55;4.15;;;3.20;99.90;;;;;;5093848;28;20304;-75
2023/02/27 08:16:42;;;;;;;5.45;3.67;;;3.20;99.90;;;;;;5092917;28;20239;-80
2023/02/27 08:19:12;;;;;;;7.03;3.47;;;3.20;99.90;;;;;;5093503;28;20245;-76
2023/02/27 08:21:47;;;;;;;9.02;4.15;;;3.30;99.90;;;;;;5093015;28;20280;-80
2023/02/27 08:24:14;;;;;;;8.07;5.15;;;3.30;99.90;;;;;;5094227;28;20222;-80
2023/02/27 08:26:41;;;;;;;6.03;5.03;;;3.40;99.90;;;;;;5093582;28;20228;-76
2023/02/27 08:29:08;;;;;;;4.45;4.05;;;3.40;99.90;;;;;;5093582;28;20238;-77
2023/02/27 08:31:35;;;;;;;5.50;4.63;;;3.40;99.90;;;;;;5093249;28;20673;-77
2023/02/27 08:34:02;;;;;;;5.32;4.38;;;3.50;99.90;;;;;;5093524;28;20219;-77
2023/02/27 08:36:31;;;;;;;4.95;3.13;;;3.40;99.90;;;;;;5092784;28;20223;-76
2023/02/27 08:38:58;;;;;;;4.57;4.18;;;3.50;99.90;;;;;;5093055;28;20227;-81
2023/02/27 08:41:25;;;;;;;5.45;3.85;;;3.50;99.90;;;;;;5093474;28;20250;-77
2023/02/27 08:43:52;;;;;;;8.30;5.00;;;3.50;99.90;;;;;;5091743;28;20261;-76
2023/02/27 08:46:18;;;;;;;6.22;4.90;;;3.50;99.90;;;;;;5093360;28;20264;-77
2023/02/27 08:48:46;;;;;;;6.32;4.40;;;3.50;99.90;;;;;;5092526;28;20251;-77
2023/02/27 08:51:13;;;;;;;4.57;4.15;;;3.50;99.90;;;;;;5093320;28;20311;-81
2023/02/27 08:53:41;;;;;;;6.05;4.72;;;3.60;99.90;;;;;;5082634;28;20219;-80
2023/02/27 08:56:09;;;;;;;6.05;5.18;;;3.60;99.90;;;;;;5092399;28;20223;-81
2023/02/27 08:58:38;;;;;;;9.82;5.93;;;3.70;99.90;;;;;;5092661;28;20231;-81
2023/02/27 09:01:07;;;;;;;11.02;5.00;;;3.70;99.90;;;;;;5092788;28;20233;-77
2023/02/27 09:03:34;;;;;;;9.48;6.20;;;3.80;99.90;;;;;;5093164;28;20231;-77
2023/02/27 09:06:04;;;;;;;6.25;4.82;;;3.80;99.90;;;;;;5092270;28;20657;-77
2023/02/27 09:08:31;;;;;;;7.78;5.28;;;3.90;99.90;;;;;;5092855;28;20227;-77
2023/02/27 09:10:59;;;;;;;7.40;5.55;;;4.00;99.90;;;;;;5092491;28;20243;-77
2023/02/27 09:13:27;;;;;;;7.20;5.15;;;4.00;99.90;;;;;;5093170;28;20231;-76
2023/02/27 09:15:54;;;;;;;7.97;5.85;;;4.10;99.90;;;;;;5096383;28;20262;-76
2023/02/27 09:18:23;;;;;;;7.97;5.22;;;4.20;99.90;;;;;;5096693;28;20617;-76
2023/02/27 09:20:51;;;;;;;6.07;5.47;;;4.20;99.90;;;;;;5095824;28;20248;-80
2023/02/27 09:23:19;;;;;;;5.38;4.85;;;4.20;99.90;;;;;;5096644;28;20331;-76
2023/02/27 09:25:47;;;;;;;6.82;5.20;;;4.30;99.90;;;;;;5095821;28;20227;-76
2023/02/27 09:28:15;;;;;;;6.93;5.22;;;4.30;99.90;;;;;;5096436;28;20250;-79
2023/02/27 09:30:51;;;;;;;7.75;5.85;;;4.40;99.90;;;;;;5096729;28;20239;-76
2023/02/27 09:33:18;;;;;;;10.10;5.50;;;4.50;99.90;;;;;;5095626;28;20219;-76
2023/02/27 09:35:46;;;;;;;8.30;5.75;;;4.50;99.90;;;;;;5095820;28;20223;-76
2023/02/27 09:38:13;;;;;;;6.13;5.20;;;4.60;99.90;;;;;;5096173;28;20231;-80
2023/02/27 09:40:42;;;;;;;5.78;5.05;;;4.60;99.90;;;;;;5095964;28;20512;-76
2023/02/27 09:43:23;;;;;;;6.13;5.63;;;4.70;99.90;;;;;;5096206;28;20680;-75
2023/02/27 09:45:55;;;;;;;6.57;5.07;;;4.70;99.90;;;;;;5096296;28;20279;-81
2023/02/27 09:48:29;;;;;;;5.55;4.47;;;4.80;99.90;;;;;;5096191;28;20219;-75
2023/02/27 09:51:00;;;;;;;5.25;4.60;;;4.80;99.90;;;;;;5095526;28;20219;-76
2023/02/27 09:53:32;;;;;;;5.70;4.30;;;4.80;99.90;;;;;;5096473;28;20227;-75
2023/02/27 09:56:07;;;;;;;4.78;4.38;;;4.90;99.90;;;;;;5096035;28;20273;-76
2023/02/27 09:58:43;;;;;;;5.20;4.70;;;5.00;99.90;;;;;;5096243;28;20243;-76
2023/02/27 10:01:19;;;;;;;6.25;4.80;;;5.00;99.90;;;;;;5096665;28;20211;-76
2023/02/27 10:04:19;;;;;;;7.15;4.22;;;5.10;99.90;;;;;;5094922;28;20255;-76
2023/02/27 10:06:51;;;;;;;6.63;3.90;;;5.20;99.90;;;;;;5095568;28;20225;-76
2023/02/27 10:09:30;;;;;;;6.80;4.68;;;5.30;99.90;;;;;;5095575;28;20596;-77
2023/02/27 10:12:09;;;;;;;5.78;4.63;;;5.40;99.90;;;;;;5096199;28;20227;-76
2023/02/27 10:14:42;;;;;;;11.27;5.05;;;5.40;99.90;;;;;;5095547;28;20633;-76
2023/02/27 10:17:18;;;;;;;7.72;4.90;;;5.50;99.90;;;;;;5095530;28;20230;-80
2023/02/27 10:19:47;;;;;;;6.93;4.28;;;5.50;99.90;;;;;;5095421;28;20222;-75
2023/02/27 10:22:21;;;;;;;7.05;4.25;;;5.60;99.90;;;;;;5094972;28;20292;-76
2023/02/27 10:24:54;;;;;;;5.80;3.50;;;5.70;99.90;;;;;;5094899;28;20234;-76
2023/02/27 10:27:23;;;;;;;7.30;4.60;;;5.70;99.90;;;;;;5095161;28;20288;-80
2023/02/27 10:29:53;;;;;;;4.38;3.97;;;5.70;99.90;;;;;;5095050;28;20610;-76
2023/02/27 10:32:25;;;;;;;4.00;3.60;;;5.80;99.90;;;;;;5095243;28;20243;-75
2023/02/27 10:35:00;;;;;;;4.20;3.70;;;5.90;99.90;;;;;;5095385;28;20219;-80
2023/02/27 10:37:29;;;;;;;4.00;3.35;;;6.00;99.90;;;;;;5094968;28;20318;-80
2023/02/27 10:39:58;;;;;;;4.15;3.50;;;6.00;99.90;;;;;;5094891;28;20611;-80
2023/02/27 10:42:30;;;;;;;4.18;3.50;;;6.10;99.90;;;;;;5095008;28;20299;-80
2023/02/27 10:44:57;;;;;;;3.00;2.67;;;6.10;99.90;;;;;;5094950;28;20224;-76
2023/02/27 10:47:26;;;;;;;3.03;2.15;;;6.20;99.90;;;;;;5094930;28;20236;-76
2023/02/27 10:49:55;;;;;;;3.47;2.35;;;6.20;99.90;;;;;;5093756;28;20489;-76
2023/02/27 10:52:22;;;;;;;2.63;2.15;;;6.20;99.30;;;;;;5094972;28;20237;-76
2023/02/27 10:54:49;;;;;;;6.07;2.67;;;6.30;99.40;;;;;;5094357;28;20220;-76
2023/02/27 10:57:26;;;;;;;2.25;2.15;;;6.30;99.20;;;;;;5095034;28;20560;-76
2023/02/27 10:59:56;;;;;;;3.17;2.50;;;6.40;99.20;;;;;;5094495;28;20226;-76
2023/02/27 11:02:30;;;;;;;3.88;2.80;;;6.40;99.20;;;;;;5094662;28;20257;-81
2023/02/27 11:04:59;;;;;;;4.97;2.60;;;6.40;98.10;;;;;;5091697;28;20223;-76
2023/02/27 11:07:32;;;;;;;7.28;2.40;;;6.40;98.20;;;;;;5082252;28;20360;-76
2023/02/27 11:10:16;;;;;;;2.95;2.55;;;6.50;96.80;;;;;;5073189;28;20563;-76
2023/02/27 11:12:56;;;;;;;2.17;1.10;;;6.50;96.10;;;;;;5073762;28;20269;-76
2023/02/27 11:15:25;;;;;;;3.92;2.00;;;6.50;95.00;;;;;;5075596;28;20231;-76
2023/02/27 11:17:57;;;;;;;3.80;2.30;;;6.50;94.50;;;;;;5060760;28;20224;-81
2023/02/27 11:20:35;;;;;;;2.55;2.35;;;6.60;95.10;;;;;;5088582;28;20219;-82
2023/02/27 11:23:05;;;;;;;4.35;2.63;;;6.60;95.30;;;;;;5072094;28;20231;-81
2023/02/27 11:25:33;;;;;;;4.55;3.17;;;6.70;95.60;;;;;;5087523;28;20247;-77
2023/02/27 11:28:20;;;;;;;4.85;2.60;;;6.70;95.90;;;;;;5087790;28;20247;-76
2023/02/27 11:30:56;;;;;;;2.88;2.30;;;6.70;96.10;;;;;;5085066;28;20231;-77
2023/02/27 11:33:26;;;;;;;3.40;2.58;;;6.80;96.20;;;;;;5083450;28;20242;-76
2023/02/27 11:35:55;;;;;;;2.17;1.88;;;6.80;95.90;;;;;;5078023;28;20215;-76
2023/02/27 11:38:24;;;;;;;5.28;2.58;;;6.80;95.80;;;;;;5087544;28;20223;-76
2023/02/27 11:40:54;;;;;;;2.55;2.35;;;6.80;95.50;;;;;;5090089;28;20241;-76
2023/02/27 11:43:24;;;;;;;6.00;2.30;;;6.80;95.40;;;;;;5079290;28;20259;-76
2023/02/27 11:45:58;;;;;;;6.00;2.40;;;6.80;95.20;;;;;;5078480;28;20247;-77
2023/02/27 11:48:29;;;;;;;3.80;1.88;;;6.70;95.20;;;;;;5079609;28;20224;-76
2023/02/27 11:51:24;;;;;;;7.10;2.72;;;6.70;95.60;;;;;;5073249;28;20249;-76
2023/02/27 11:54:14;;;;;;;2.25;1.55;;;6.70;95.50;;;;;;5063632;28;20212;-76
2023/02/27 11:56:44;;;;;;;2.05;1.20;;;6.70;94.80;;;;;;5071760;28;20223;-76
2023/02/27 11:59:25;;;;;;;3.65;1.80;;;6.70;94.10;;;;;;5071838;28;20293;-81
2023/02/27 12:01:59;;;;;;;2.17;2.00;;;6.70;94.20;;;;;;5081736;28;20215;-81
2023/02/27 12:04:39;;;;;;;2.58;2.08;;;6.70;94.10;;;;;;5080399;28;20274;-80
2023/02/27 12:07:14;;;;;;;2.55;2.15;;;6.70;93.70;;;;;;5086574;28;20621;-76
2023/02/27 12:09:47;;;;;;;2.75;2.50;;;6.70;93.50;;;;;;5074795;28;20227;-76
2023/02/27 12:12:21;;;;;;;3.38;2.95;;;6.70;94.00;;;;;;5078002;28;20604;-76
2023/02/27 12:14:56;;;;;;;2.10;1.90;;;6.80;94.40;;;;;;5099165;28;20215;-77
2023/02/27 12:17:29;;;;;;;2.55;1.75;;;6.80;94.80;;;;;;5097573;28;20228;-82
2023/02/27 12:20:11;;;;;;;3.05;1.40;;;6.70;93.40;;;;;;5088293;28;20219;-81
2023/02/27 12:22:44;;;;;;;2.90;1.83;;;6.70;93.50;;;;;;5094297;28;20215;-81
2023/02/27 12:25:15;;;;;;;1.38;1.20;;;6.60;93.40;;;;;;5085631;28;21942;-81
2023/02/27 12:27:49;;;;;;;4.18;1.90;;;6.70;93.10;;;;;;5099334;28;20223;-76
2023/02/27 12:30:21;;;;;;;2.35;1.55;;;6.70;92.90;;;;;;5080034;28;20223;-76
2023/02/27 12:32:53;;;;;;;1.95;1.75;;;6.70;93.10;;;;;;5093520;28;20223;-80
2023/02/27 12:35:27;;;;;;;1.92;1.13;;;6.80;92.90;;;;;;5092874;28;20225;-75
2023/02/27 12:37:54;;;;;;;1.40;1.20;;;6.80;91.40;;;;;;5073323;28;20228;-81
2023/02/27 12:40:29;;;;;;;3.70;1.10;;;6.80;90.50;;;;;;5071513;28;20561;-81
2023/02/27 12:43:20;;;;;;;2.45;1.45;;;6.80;87.90;;;;;;5072895;28;20223;-80
2023/02/27 12:45:59;;;;;;;1.20;1.10;;;6.80;88.30;;;;;;5073084;28;20246;-81
2023/02/27 12:48:42;;;;;;;2.05;1.02;;;6.90;88.50;;;;;;5094745;28;20238;-76
2023/02/27 12:51:28;;;;;;;1.48;1.35;;;6.80;86.10;;;;;;5098799;28;20233;-76
2023/02/27 12:54:11;;;;;;;4.50;1.20;;;6.90;84.90;;;;;;5086883;28;20222;-82
2023/02/27 12:56:50;;;;;;;2.88;1.30;;;6.90;84.60;;;;;;5073016;28;20304;-77
2023/02/27 12:59:34;;;;;;;2.03;1.10;;;6.80;81.50;;;;;;5099061;28;20227;-82
2023/02/27 13:02:13;;;;;;;1.95;1.00;;;6.90;81.60;;;;;;5099142;28;20218;-76
2023/02/27 13:04:45;;;;;;;2.25;1.00;;;6.80;80.10;;;;;;5087845;28;20293;-81
2023/02/27 13:07:23;;;;;;;2.10;1.45;;;6.90;81.20;;;;;;5082077;28;20580;-75
2023/02/27 13:09:55;;;;;;;2.10;1.48;;;7.00;80.40;;;;;;5078091;28;20223;-76
2023/02/27 13:12:29;;;;;;;1.42;1.08;;;7.00;80.00;;;;;;5108670;28;20621;-76
2023/02/27 13:15:01;;;;;;;1.45;1.25;;;7.00;80.70;;;;;;5111458;28;20240;-76
2023/02/27 13:17:36;;;;;;;1.48;1.10;;;7.10;80.90;;;;;;5088059;28;20595;-76
2023/02/27 13:20:16;;;;;;;1.80;1.35;;;7.10;80.50;;;;;;5101848;28;20219;-80
2023/02/27 13:22:53;;;;;;;1.77;1.23;;;7.10;80.10;;;;;;5077679;28;20250;-76